Time;durP1;ratioP1;P1;durP2;ratioP2;P2;SDS_P1;SDS_P2;PMS_P1;PMS_P2;Temp;Humidity;BMP_temperature;BMP_pressure;BME280_temperature;BME280_humidity;BME280_pressure;Samples;Min_cycle;Max_cycle;Signal;HPM_P1;HPM_P2
2023/03/14 00:02:21;;;;;;;0.00;0.00;;;9.00;99.90;;;;;;4980730;28;20033;-76
2023/03/14 00:04:48;;;;;;;0.00;0.00;;;8.90;99.90;;;;;;4979961;28;20034;-76
2023/03/14 00:07:24;;;;;;;;;;;8.80;99.90;;;;;;4975749;28;20033;-76
2023/03/14 00:09:54;;;;;;;0.00;0.00;;;8.80;99.90;;;;;;4984990;28;19932;-76
2023/03/14 00:12:21;;;;;;;0.00;0.00;;;8.90;99.90;;;;;;4980817;28;20037;-76
2023/03/14 00:15:03;;;;;;;0.00;0.00;;;8.80;99.90;;;;;;4980739;28;20117;-76
2023/03/14 00:17:34;;;;;;;0.00;0.00;;;8.70;99.90;;;;;;4979414;28;20117;-76
2023/03/14 00:20:11;;;;;;;0.20;0.20;;;8.60;99.90;;;;;;4992234;28;20037;-76
2023/03/14 00:22:38;;;;;;;0.00;0.00;;;8.50;99.90;;;;;;4973552;28;20679;-76
2023/03/14 00:25:05;;;;;;;0.00;0.00;;;8.50;99.90;;;;;;4988125;28;20079;-76
2023/03/14 00:27:35;;;;;;;0.00;0.00;;;8.40;99.90;;;;;;4978218;28;20026;-76
2023/03/14 00:30:02;;;;;;;0.00;0.00;;;8.50;99.90;;;;;;4980365;28;20026;-76
2023/03/14 00:32:30;;;;;;;0.00;0.00;;;8.40;99.90;;;;;;4976748;28;20068;-76
2023/03/14 00:34:56;;;;;;;0.00;0.00;;;8.30;99.90;;;;;;4987859;28;20026;-76
2023/03/14 00:37:22;;;;;;;0.00;0.00;;;8.20;99.90;;;;;;4989018;28;20084;-76
2023/03/14 00:39:48;;;;;;;;;;;8.10;99.90;;;;;;4984917;28;20018;-76
2023/03/14 00:42:15;;;;;;;0.00;0.00;;;8.00;99.90;;;;;;4981599;28;20287;-75
2023/03/14 00:44:43;;;;;;;0.00;0.00;;;8.10;99.90;;;;;;4980742;28;20156;-75
2023/03/14 00:47:11;;;;;;;0.00;0.00;;;8.00;99.90;;;;;;4986478;28;20014;-76
2023/03/14 00:49:38;;;;;;;0.00;0.00;;;8.00;99.90;;;;;;4973199;28;20321;-75
2023/03/14 00:52:09;;;;;;;;;;;7.90;99.90;;;;;;4992513;28;20830;-76
2023/03/14 00:54:35;;;;;;;0.00;0.00;;;7.90;99.90;;;;;;4985432;28;19921;-76
2023/03/14 00:57:02;;;;;;;0.00;0.00;;;7.90;99.90;;;;;;4981790;28;20034;-75
2023/03/14 00:59:31;;;;;;;;;;;7.90;99.90;;;;;;4975509;28;20026;-76
2023/03/14 01:02:02;;;;;;;0.00;0.00;;;7.90;99.90;;;;;;4979591;28;19917;-76
2023/03/14 01:04:30;;;;;;;0.00;0.00;;;7.80;99.90;;;;;;4989878;28;20049;-76
2023/03/14 01:06:55;;;;;;;0.00;0.00;;;7.80;99.90;;;;;;4980652;28;20105;-76
2023/03/14 01:09:25;;;;;;;0.00;0.00;;;7.80;99.90;;;;;;4980479;28;20101;-77
2023/03/14 01:11:51;;;;;;;0.00;0.00;;;7.70;99.90;;;;;;4975864;28;20474;-76
2023/03/14 01:14:22;;;;;;;0.00;0.00;;;7.60;99.90;;;;;;4986575;28;20081;-76
2023/03/14 01:16:49;;;;;;;0.00;0.00;;;7.60;99.90;;;;;;4980991;28;20022;-76
2023/03/14 01:19:15;;;;;;;;;;;7.60;99.90;;;;;;4974207;28;20035;-76
2023/03/14 01:21:40;;;;;;;0.00;0.00;;;7.60;99.90;;;;;;4988041;28;19929;-76
2023/03/14 01:24:07;;;;;;;0.00;0.00;;;7.50;99.90;;;;;;4982476;28;20033;-76
2023/03/14 01:26:34;;;;;;;0.00;0.00;;;7.50;99.90;;;;;;4985841;28;20097;-76
2023/03/14 01:29:01;;;;;;;0.00;0.00;;;7.50;99.90;;;;;;4975521;28;20047;-76
2023/03/14 01:31:27;;;;;;;0.00;0.00;;;7.40;99.90;;;;;;4982789;28;20010;-76
2023/03/14 01:33:54;;;;;;;0.00;0.00;;;7.40;99.90;;;;;;4988865;28;20126;-76
2023/03/14 01:36:19;;;;;;;0.00;0.00;;;7.40;99.90;;;;;;4974202;28;20056;-76
2023/03/14 01:38:46;;;;;;;0.00;0.00;;;7.40;99.90;;;;;;4974583;28;20050;-76
2023/03/14 01:41:14;;;;;;;;;;;7.40;99.90;;;;;;4989169;28;20257;-76
2023/03/14 01:43:40;;;;;;;;;;;7.40;99.90;;;;;;4975917;28;19931;-76
2023/03/14 01:46:05;;;;;;;0.00;0.00;;;7.40;99.90;;;;;;4982079;28;20629;-76
2023/03/14 01:48:47;;;;;;;0.00;0.00;;;7.40;99.90;;;;;;4985319;28;20018;-76
2023/03/14 01:51:21;;;;;;;0.00;0.00;;;7.40;99.90;;;;;;4972276;28;20021;-76
2023/03/14 01:53:50;;;;;;;0.00;0.00;;;7.40;99.90;;;;;;4974655;28;20049;-76
2023/03/14 01:56:17;;;;;;;0.00;0.00;;;7.40;99.90;;;;;;4975182;28;20026;-76
2023/03/14 01:58:47;;;;;;;0.00;0.00;;;7.30;99.90;;;;;;4975654;28;20029;-76
2023/03/14 02:01:17;;;;;;;0.00;0.00;;;7.30;99.90;;;;;;4973605;28;20023;-76
2023/03/14 02:03:55;;;;;;;0.00;0.00;;;7.30;99.90;;;;;;4986842;28;20025;-76
2023/03/14 02:06:25;;;;;;;0.00;0.00;;;7.30;99.90;;;;;;4980968;28;20031;-76
2023/03/14 02:08:51;;;;;;;0.00;0.00;;;7.30;99.90;;;;;;4971726;28;20060;-76
2023/03/14 02:11:17;;;;;;;0.00;0.00;;;7.30;99.90;;;;;;4984506;28;20062;-77
2023/03/14 02:13:44;;;;;;;0.00;0.00;;;7.40;99.90;;;;;;4982909;28;20027;-76
2023/03/14 02:16:10;;;;;;;0.00;0.00;;;7.40;99.90;;;;;;4975031;28;20026;-76
2023/03/14 02:18:37;;;;;;;0.00;0.00;;;7.40;99.90;;;;;;4984178;28;20030;-76
2023/03/14 02:21:21;;;;;;;0.00;0.00;;;7.40;99.90;;;;;;4976812;28;20030;-76
2023/03/14 02:23:58;;;;;;;0.00;0.00;;;7.40;99.90;;;;;;4985418;28;20050;-76
2023/03/14 02:26:39;;;;;;;0.00;0.00;;;7.40;99.90;;;;;;4971502;28;20121;-76
2023/03/14 02:29:06;;;;;;;0.00;0.00;;;7.40;99.90;;;;;;4987892;28;20017;-76
2023/03/14 02:31:34;;;;;;;0.00;0.00;;;7.40;99.90;;;;;;4984359;28;20049;-77
2023/03/14 02:34:02;;;;;;;0.00;0.00;;;7.50;99.90;;;;;;4987042;28;20014;-76
2023/03/14 02:36:33;;;;;;;0.00;0.00;;;7.60;99.90;;;;;;4990224;28;20025;-76
2023/03/14 02:39:21;;;;;;;0.00;0.00;;;7.60;99.90;;;;;;4988604;28;20735;-76
2023/03/14 02:41:49;;;;;;;0.00;0.00;;;7.60;99.90;;;;;;4982101;28;20022;-77
2023/03/14 02:44:23;;;;;;;0.00;0.00;;;7.60;99.90;;;;;;4978995;28;20028;-76
2023/03/14 02:46:51;;;;;;;0.00;0.00;;;7.60;99.90;;;;;;4988132;28;20052;-75
2023/03/14 02:49:17;;;;;;;0.10;0.10;;;7.60;99.90;;;;;;4984047;28;20022;-76
2023/03/14 02:51:52;;;;;;;0.00;0.00;;;7.60;99.90;;;;;;4984597;28;20013;-76
2023/03/14 02:54:20;;;;;;;0.00;0.00;;;7.60;99.90;;;;;;4973133;28;20045;-76
2023/03/14 02:56:48;;;;;;;0.00;0.00;;;7.60;99.90;;;;;;4987901;28;20023;-75
2023/03/14 02:59:16;;;;;;;0.00;0.00;;;7.60;99.90;;;;;;4992467;28;20056;-75
2023/03/14 03:01:45;;;;;;;0.00;0.00;;;7.60;99.90;;;;;;4982948;28;20379;-76
2023/03/14 03:04:15;;;;;;;0.00;0.00;;;7.60;99.90;;;;;;4982022;28;20034;-76
2023/03/14 03:06:42;;;;;;;0.00;0.00;;;7.60;99.90;;;;;;4986865;28;20022;-76
2023/03/14 03:09:10;;;;;;;0.00;0.00;;;7.60;99.90;;;;;;4985141;28;20105;-77
2023/03/14 03:11:36;;;;;;;0.00;0.00;;;7.70;99.90;;;;;;4983974;28;20022;-76
2023/03/14 03:14:01;;;;;;;0.00;0.00;;;7.60;99.90;;;;;;4977266;28;20092;-75
2023/03/14 03:16:29;;;;;;;0.00;0.00;;;7.70;99.90;;;;;;4985097;28;20088;-76
2023/03/14 03:19:05;;;;;;;0.00;0.00;;;7.70;99.90;;;;;;4978368;28;20026;-76
2023/03/14 03:21:37;;;;;;;0.28;0.28;;;7.70;99.90;;;;;;4984085;28;21528;-76
2023/03/14 03:24:04;;;;;;;0.00;0.00;;;7.80;99.90;;;;;;4982359;28;20022;-76
2023/03/14 03:26:30;;;;;;;;;;;7.90;99.90;;;;;;4987422;28;20060;-76
2023/03/14 03:28:57;;;;;;;0.00;0.00;;;8.00;99.90;;;;;;4987375;28;20001;-76
2023/03/14 03:31:22;;;;;;;;;;;8.10;99.90;;;;;;4987570;28;20049;-76
2023/03/14 03:33:48;;;;;;;0.00;0.00;;;8.20;99.90;;;;;;4976559;28;20500;-75
2023/03/14 03:36:26;;;;;;;0.00;0.00;;;8.20;99.90;;;;;;4978600;28;20026;-76
2023/03/14 03:38:54;;;;;;;0.00;0.00;;;8.20;99.90;;;;;;4976208;28;20490;-76
2023/03/14 03:41:26;;;;;;;0.00;0.00;;;8.10;99.90;;;;;;4987814;28;20023;-76
2023/03/14 03:43:54;;;;;;;0.00;0.00;;;8.10;99.90;;;;;;4980938;28;20057;-76
2023/03/14 03:46:19;;;;;;;0.00;0.00;;;8.10;99.90;;;;;;4979894;28;20018;-76
2023/03/14 03:48:45;;;;;;;0.40;0.40;;;8.10;99.90;;;;;;4976153;28;20030;-75
2023/03/14 03:51:15;;;;;;;0.00;0.00;;;8.00;99.90;;;;;;4988950;28;20018;-76
2023/03/14 03:53:42;;;;;;;0.00;0.00;;;7.90;99.90;;;;;;4980807;28;20037;-76
2023/03/14 03:56:09;;;;;;;0.00;0.00;;;7.80;99.90;;;;;;4981518;28;20030;-76
2023/03/14 03:58:37;;;;;;;0.00;0.00;;;7.80;99.90;;;;;;4978435;28;20035;-76
2023/03/14 04:01:12;;;;;;;0.00;0.00;;;7.90;99.90;;;;;;4989530;28;20030;-76
2023/03/14 04:03:40;;;;;;;0.00;0.00;;;8.00;99.90;;;;;;4988710;28;20683;-76
2023/03/14 04:06:10;;;;;;;0.00;0.00;;;8.10;99.90;;;;;;4992020;28;20497;-76
2023/03/14 04:08:46;;;;;;;0.00;0.00;;;8.30;99.90;;;;;;4989416;28;20612;-75
2023/03/14 04:11:14;;;;;;;0.00;0.00;;;8.40;99.90;;;;;;4991063;28;20027;-76
2023/03/14 04:13:40;;;;;;;0.00;0.00;;;8.40;99.90;;;;;;4980537;28;20046;-75
2023/03/14 04:16:16;;;;;;;0.00;0.00;;;8.50;99.90;;;;;;4999354;28;20054;-76
2023/03/14 04:18:43;;;;;;;0.00;0.00;;;8.60;99.90;;;;;;4992308;28;20479;-75
2023/03/14 04:21:08;;;;;;;;;;;8.70;99.90;;;;;;4979469;28;20022;-75
2023/03/14 04:23:38;;;;;;;0.00;0.00;;;8.70;99.90;;;;;;4984275;28;19906;-75
2023/03/14 04:26:04;;;;;;;0.00;0.00;;;8.90;99.90;;;;;;4980567;28;20033;-75
2023/03/14 04:28:36;;;;;;;0.00;0.00;;;9.00;99.90;;;;;;4990831;28;20077;-75
2023/03/14 04:31:13;;;;;;;0.00;0.00;;;9.00;99.90;;;;;;4978987;28;20050;-75
2023/03/14 04:33:39;;;;;;;0.00;0.00;;;9.20;99.90;;;;;;4980668;28;20803;-75
2023/03/14 04:36:08;;;;;;;0.00;0.00;;;9.30;99.90;;;;;;4975950;28;20030;-76
2023/03/14 04:38:34;;;;;;;1.35;0.80;;;9.40;99.90;;;;;;4977722;28;20026;-76
2023/03/14 04:41:00;;;;;;;;;;;9.50;99.90;;;;;;4991239;28;20483;-75
2023/03/14 04:43:26;;;;;;;0.00;0.00;;;9.50;99.90;;;;;;4987576;28;19944;-76
2023/03/14 04:45:57;;;;;;;0.00;0.00;;;9.60;99.90;;;;;;4982725;28;20104;-76
2023/03/14 04:48:25;;;;;;;0.30;0.30;;;9.60;99.90;;;;;;4990631;28;20057;-75
2023/03/14 04:50:54;;;;;;;0.00;0.00;;;9.80;99.90;;;;;;4979677;28;20058;-76
2023/03/14 04:53:20;;;;;;;0.00;0.00;;;9.80;99.90;;;;;;4993353;28;20731;-75
2023/03/14 04:55:52;;;;;;;0.00;0.00;;;9.80;99.90;;;;;;4988013;28;20054;-75
2023/03/14 04:58:19;;;;;;;0.00;0.00;;;9.80;99.90;;;;;;4988188;28;20806;-76
2023/03/14 05:00:48;;;;;;;0.00;0.00;;;9.90;99.90;;;;;;4995334;28;20607;-76
2023/03/14 05:03:23;;;;;;;0.00;0.00;;;9.90;99.90;;;;;;4978377;28;20421;-75
2023/03/14 05:05:51;;;;;;;0.00;0.00;;;10.00;99.90;;;;;;4987786;28;20018;-74
2023/03/14 05:08:17;;;;;;;0.00;0.00;;;10.10;99.90;;;;;;4983731;28;20026;-74
2023/03/14 05:10:53;;;;;;;0.00;0.00;;;10.20;99.90;;;;;;4990377;28;20022;-74
2023/03/14 05:13:19;;;;;;;0.00;0.00;;;10.30;99.90;;;;;;4986649;28;20025;-75
2023/03/14 05:15:45;;;;;;;0.00;0.00;;;10.30;99.90;;;;;;4980045;28;20026;-74
2023/03/14 05:18:12;;;;;;;;;;;10.30;99.90;;;;;;4992174;28;20053;-74
2023/03/14 05:20:38;;;;;;;0.00;0.00;;;10.40;99.90;;;;;;4984752;28;19960;-74
2023/03/14 05:23:03;;;;;;;0.00;0.00;;;10.50;99.90;;;;;;4996538;28;20049;-74
2023/03/14 05:25:29;;;;;;;0.00;0.00;;;10.60;99.90;;;;;;4974049;28;21469;-75
2023/03/14 05:27:56;;;;;;;0.00;0.00;;;10.50;99.90;;;;;;4994351;28;20939;-74
2023/03/14 05:30:23;;;;;;;0.10;0.10;;;10.60;99.90;;;;;;4985588;28;20077;-74
2023/03/14 05:32:49;;;;;;;0.00;0.00;;;10.50;99.90;;;;;;4980349;28;20750;-75
2023/03/14 05:35:16;;;;;;;0.00;0.00;;;10.50;99.90;;;;;;4979074;28;20026;-75
2023/03/14 05:37:44;;;;;;;;;;;10.50;99.90;;;;;;4978055;28;20157;-75
2023/03/14 05:40:11;;;;;;;0.00;0.00;;;10.40;99.90;;;;;;4977180;28;19925;-75
2023/03/14 05:42:36;;;;;;;0.00;0.00;;;10.40;99.90;;;;;;4988785;28;20026;-74
2023/03/14 05:45:06;;;;;;;0.00;0.00;;;10.40;99.90;;;;;;4976379;28;20133;-75
2023/03/14 05:47:31;;;;;;;0.00;0.00;;;10.40;99.90;;;;;;4987569;28;20113;-74
2023/03/14 05:50:01;;;;;;;0.00;0.00;;;10.40;99.90;;;;;;4983152;28;20093;-75
2023/03/14 05:52:30;;;;;;;0.00;0.00;;;10.40;99.90;;;;;;4976154;28;20022;-75
2023/03/14 05:54:59;;;;;;;0.00;0.00;;;10.50;99.90;;;;;;4987056;28;20554;-74
2023/03/14 05:57:25;;;;;;;0.00;0.00;;;10.50;99.90;;;;;;4981137;28;20108;-75
2023/03/14 05:59:50;;;;;;;0.00;0.00;;;10.60;99.90;;;;;;4976218;28;20037;-74
2023/03/14 06:02:16;;;;;;;0.00;0.00;;;10.70;99.90;;;;;;4990556;28;20105;-74
2023/03/14 06:04:43;;;;;;;0.00;0.00;;;10.70;99.90;;;;;;4990461;28;20065;-74
2023/03/14 06:07:08;;;;;;;;;;;10.70;99.90;;;;;;4982101;28;20011;-74
2023/03/14 06:09:37;;;;;;;0.00;0.00;;;10.80;99.90;;;;;;4971716;28;19912;-74
2023/03/14 06:12:03;;;;;;;0.00;0.00;;;10.90;99.90;;;;;;4989655;28;20621;-75
2023/03/14 06:14:32;;;;;;;0.00;0.00;;;11.00;99.90;;;;;;4989813;28;20041;-75
2023/03/14 06:16:58;;;;;;;0.00;0.00;;;11.20;99.90;;;;;;4988487;28;20037;-75
2023/03/14 06:19:27;;;;;;;0.15;0.05;;;11.20;99.90;;;;;;4982614;28;20033;-75
2023/03/14 06:21:53;;;;;;;0.00;0.00;;;11.40;99.90;;;;;;4971451;28;20054;-75
2023/03/14 06:24:22;;;;;;;0.00;0.00;;;11.50;99.90;;;;;;4977135;28;20061;-75
2023/03/14 06:26:47;;;;;;;0.00;0.00;;;11.60;99.90;;;;;;4983731;28;20040;-75
2023/03/14 06:29:19;;;;;;;0.00;0.00;;;11.80;99.90;;;;;;4975125;28;20030;-75
2023/03/14 06:31:47;;;;;;;0.00;0.00;;;11.90;99.90;;;;;;4989270;28;20057;-75
2023/03/14 06:34:13;;;;;;;0.00;0.00;;;12.00;99.90;;;;;;4974477;28;20345;-75
2023/03/14 06:36:39;;;;;;;;;;;12.00;99.90;;;;;;4987987;28;20375;-75
2023/03/14 06:39:06;;;;;;;0.00;0.00;;;12.30;99.90;;;;;;4990997;28;19906;-75
2023/03/14 06:41:37;;;;;;;0.00;0.00;;;12.50;99.90;;;;;;4979524;28;20476;-75
2023/03/14 06:44:02;;;;;;;0.00;0.00;;;12.70;99.90;;;;;;4988379;28;20556;-75
2023/03/14 06:46:29;;;;;;;0.00;0.00;;;12.80;99.90;;;;;;4970482;28;20018;-75
2023/03/14 06:48:55;;;;;;;0.00;0.00;;;12.90;99.90;;;;;;4975366;28;20057;-75
2023/03/14 06:51:20;;;;;;;0.00;0.00;;;13.20;99.90;;;;;;4974795;28;20478;-75
2023/03/14 06:53:46;;;;;;;0.00;0.00;;;14.10;99.90;;;;;;4981661;28;20058;-75
2023/03/14 06:56:12;;;;;;;0.00;0.00;;;16.40;99.90;;;;;;4986975;28;20022;-75
2023/03/14 06:58:39;;;;;;;0.00;0.00;;;18.60;96.50;;;;;;4981038;28;20054;-74
2023/03/14 07:01:06;;;;;;;0.00;0.00;;;19.40;90.90;;;;;;4992288;28;21298;-75
2023/03/14 07:03:32;;;;;;;0.00;0.00;;;19.70;87.60;;;;;;4977730;28;20630;-75
2023/03/14 07:05:59;;;;;;;0.00;0.00;;;19.40;86.00;;;;;;4992318;28;20034;-74
2023/03/14 07:08:31;;;;;;;0.00;0.00;;;18.90;79.30;;;;;;4987381;28;20110;-74
2023/03/14 07:10:57;;;;;;;0.00;0.00;;;18.40;78.80;;;;;;4979379;28;20028;-74
2023/03/14 07:13:23;;;;;;;0.10;0.10;;;18.10;79.00;;;;;;4987287;28;20614;-75
2023/03/14 07:15:49;;;;;;;0.00;0.00;;;18.70;82.30;;;;;;4980460;28;20117;-74
2023/03/14 07:18:15;;;;;;;0.00;0.00;;;19.00;84.80;;;;;;4983098;28;20034;-74
2023/03/14 07:20:41;;;;;;;0.00;0.00;;;18.60;86.70;;;;;;4995757;28;20041;-76
2023/03/14 07:23:08;;;;;;;0.00;0.00;;;17.40;90.40;;;;;;4987848;28;20121;-75
2023/03/14 07:25:46;;;;;;;0.00;0.00;;;16.60;92.70;;;;;;4988678;28;20488;-76
2023/03/14 07:28:12;;;;;;;0.00;0.00;;;16.20;95.00;;;;;;4992361;28;20029;-76
2023/03/14 07:30:38;;;;;;;0.00;0.00;;;15.90;96.70;;;;;;4975799;28;20023;-76
2023/03/14 07:33:04;;;;;;;0.00;0.00;;;15.60;98.00;;;;;;4982269;28;20036;-76
2023/03/14 07:35:30;;;;;;;0.00;0.00;;;15.30;98.90;;;;;;4992242;28;20034;-75
2023/03/14 07:37:59;;;;;;;0.00;0.00;;;15.00;99.80;;;;;;4989415;28;20428;-75
2023/03/14 07:40:26;;;;;;;0.10;0.10;;;14.80;99.90;;;;;;4979973;28;20034;-76
2023/03/14 07:42:55;;;;;;;0.00;0.00;;;14.70;99.90;;;;;;4990990;28;20062;-75
2023/03/14 07:45:31;;;;;;;0.00;0.00;;;14.60;99.90;;;;;;4990861;28;20019;-76
2023/03/14 07:48:01;;;;;;;0.00;0.00;;;14.70;99.90;;;;;;4985208;28;20655;-75
2023/03/14 07:50:34;;;;;;;0.00;0.00;;;14.60;99.90;;;;;;4985794;28;20097;-76
2023/03/14 07:53:00;;;;;;;0.00;0.00;;;14.40;99.90;;;;;;4981038;28;20030;-75
2023/03/14 07:55:27;;;;;;;0.00;0.00;;;14.40;99.90;;;;;;4982925;28;20036;-75
2023/03/14 07:57:56;;;;;;;0.00;0.00;;;14.30;99.90;;;;;;4988696;28;20685;-75
2023/03/14 08:00:26;;;;;;;0.00;0.00;;;14.20;99.90;;;;;;4994368;28;20109;-76
2023/03/14 08:02:52;;;;;;;0.00;0.00;;;14.10;99.90;;;;;;4995350;28;20077;-76
2023/03/14 08:05:22;;;;;;;0.00;0.00;;;14.00;99.90;;;;;;4980512;28;20022;-76
2023/03/14 08:07:48;;;;;;;0.00;0.00;;;13.80;99.90;;;;;;4981192;28;20030;-75
2023/03/14 08:10:20;;;;;;;0.00;0.00;;;13.80;99.90;;;;;;4986700;28;20018;-76
2023/03/14 08:12:53;;;;;;;0.00;0.00;;;13.70;99.90;;;;;;4985877;28;20034;-76
2023/03/14 08:15:20;;;;;;;0.00;0.00;;;13.70;99.90;;;;;;4984701;28;20022;-76
2023/03/14 08:17:50;;;;;;;0.00;0.00;;;13.60;99.90;;;;;;4978517;28;20025;-75
2023/03/14 08:20:28;;;;;;;0.00;0.00;;;13.60;99.90;;;;;;4980696;28;20033;-76
2023/03/14 08:23:00;;;;;;;0.00;0.00;;;13.50;99.90;;;;;;4991856;28;21523;-75
2023/03/14 08:25:27;;;;;;;0.00;0.00;;;13.50;99.90;;;;;;4988774;28;20148;-76
2023/03/14 08:27:59;;;;;;;0.00;0.00;;;13.40;99.90;;;;;;4992655;28;20050;-76
2023/03/14 08:30:29;;;;;;;0.00;0.00;;;13.40;99.90;;;;;;4977914;28;20030;-75
2023/03/14 08:32:57;;;;;;;0.00;0.00;;;13.40;99.90;;;;;;4972864;28;20026;-76
2023/03/14 08:35:31;;;;;;;0.00;0.00;;;13.30;99.90;;;;;;4996920;28;20480;-76
2023/03/14 08:37:59;;;;;;;0.00;0.00;;;13.30;99.90;;;;;;4976361;28;20487;-75
2023/03/14 08:40:24;;;;;;;0.00;0.00;;;13.30;99.90;;;;;;4992650;28;20084;-75
2023/03/14 08:42:51;;;;;;;0.00;0.00;;;13.20;99.90;;;;;;4978250;28;20058;-76
2023/03/14 08:45:19;;;;;;;0.00;0.00;;;13.20;99.90;;;;;;4993063;28;20308;-75
2023/03/14 08:47:50;;;;;;;0.00;0.00;;;13.20;99.90;;;;;;4982389;28;20019;-76
2023/03/14 08:50:18;;;;;;;0.00;0.00;;;13.20;99.90;;;;;;4990582;28;20109;-76
2023/03/14 08:52:49;;;;;;;1.65;0.28;;;13.20;99.90;;;;;;4976181;28;20104;-75
2023/03/14 08:55:16;;;;;;;0.00;0.00;;;13.20;99.90;;;;;;4986447;28;20064;-76
2023/03/14 08:57:46;;;;;;;0.00;0.00;;;13.20;99.90;;;;;;4979033;28;20030;-76
2023/03/14 09:00:15;;;;;;;0.00;0.00;;;13.30;99.90;;;;;;4973271;28;20551;-75
2023/03/14 09:02:43;;;;;;;0.00;0.00;;;13.20;99.90;;;;;;4975155;28;20484;-75
2023/03/14 09:05:10;;;;;;;0.00;0.00;;;13.30;99.90;;;;;;4973829;28;20036;-75
2023/03/14 09:07:37;;;;;;;0.00;0.00;;;13.30;99.90;;;;;;4987968;28;20373;-76
2023/03/14 09:10:04;;;;;;;0.00;0.00;;;13.30;99.90;;;;;;4979474;28;20391;-76
2023/03/14 09:12:32;;;;;;;0.00;0.00;;;13.40;99.90;;;;;;4995782;28;20112;-75
2023/03/14 09:14:57;;;;;;;0.00;0.00;;;13.40;99.90;;;;;;4982226;28;20134;-75
2023/03/14 09:17:23;;;;;;;0.00;0.00;;;13.40;99.90;;;;;;4977395;28;20133;-75
2023/03/14 09:19:49;;;;;;;0.00;0.00;;;13.40;99.90;;;;;;4985023;28;20277;-75
2023/03/14 09:22:17;;;;;;;0.00;0.00;;;13.50;99.90;;;;;;4978832;28;20096;-75
2023/03/14 09:24:43;;;;;;;0.00;0.00;;;13.40;99.90;;;;;;4976629;28;20500;-75
2023/03/14 09:27:12;;;;;;;0.00;0.00;;;13.40;99.90;;;;;;4974760;28;20046;-75
2023/03/14 09:29:39;;;;;;;0.00;0.00;;;13.40;99.90;;;;;;4973079;28;20029;-75
2023/03/14 09:32:04;;;;;;;0.00;0.00;;;13.40;99.90;;;;;;4975858;28;20053;-75
2023/03/14 09:34:30;;;;;;;0.00;0.00;;;13.40;99.90;;;;;;4987977;28;20495;-75
2023/03/14 09:36:57;;;;;;;0.00;0.00;;;13.40;99.90;;;;;;4986011;28;20026;-76
2023/03/14 09:39:23;;;;;;;0.00;0.00;;;13.40;99.90;;;;;;4982816;28;20696;-75
2023/03/14 09:41:54;;;;;;;0.00;0.00;;;13.40;99.90;;;;;;4989155;28;20041;-75
2023/03/14 09:44:28;;;;;;;0.00;0.00;;;13.40;99.90;;;;;;4987641;28;20386;-76
2023/03/14 09:46:58;;;;;;;0.00;0.00;;;13.40;99.90;;;;;;4977008;28;20136;-76
2023/03/14 09:49:29;;;;;;;0.00;0.00;;;13.40;99.90;;;;;;4971869;28;21099;-76
2023/03/14 09:52:16;;;;;;;0.00;0.00;;;13.40;99.90;;;;;;4975622;28;20118;-76
2023/03/14 09:54:50;;;;;;;0.00;0.00;;;13.50;99.90;;;;;;4976466;28;20033;-75
2023/03/14 09:57:25;;;;;;;0.00;0.00;;;13.60;99.90;;;;;;4990527;28;20145;-76
2023/03/14 09:59:56;;;;;;;0.00;0.00;;;13.60;99.90;;;;;;4983542;28;20728;-75
2023/03/14 10:02:38;;;;;;;0.00;0.00;;;13.70;99.90;;;;;;4986719;28;20037;-75
2023/03/14 10:05:15;;;;;;;0.00;0.00;;;13.80;99.90;;;;;;4986047;28;20804;-76
2023/03/14 10:07:41;;;;;;;0.00;0.00;;;13.80;99.90;;;;;;4984360;28;20018;-75
2023/03/14 10:10:20;;;;;;;0.00;0.00;;;13.80;99.90;;;;;;4971064;28;20023;-75
2023/03/14 10:12:54;;;;;;;0.00;0.00;;;13.90;99.90;;;;;;4983028;28;20019;-76
2023/03/14 10:15:27;;;;;;;0.00;0.00;;;13.90;99.90;;;;;;4986959;28;20834;-76
2023/03/14 10:17:55;;;;;;;0.00;0.00;;;13.90;99.90;;;;;;4977782;28;20036;-75
2023/03/14 10:20:36;;;;;;;0.00;0.00;;;13.90;99.90;;;;;;4987712;28;20029;-76
2023/03/14 10:23:25;;;;;;;0.00;0.00;;;14.00;99.90;;;;;;4984714;28;20088;-76
2023/03/14 10:26:18;;;;;;;0.00;0.00;;;14.10;99.90;;;;;;4972131;28;20578;-75
2023/03/14 10:29:00;;;;;;;0.00;0.00;;;14.10;99.90;;;;;;4983635;28;20483;-75
2023/03/14 10:31:45;;;;;;;0.00;0.00;;;14.10;99.90;;;;;;4977779;28;20026;-75
2023/03/14 10:34:16;;;;;;;0.00;0.00;;;14.10;99.90;;;;;;4982134;28;20018;-75
2023/03/14 10:36:42;;;;;;;0.00;0.00;;;14.10;99.90;;;;;;4973558;28;20105;-76
2023/03/14 10:39:28;;;;;;;0.00;0.00;;;14.10;99.90;;;;;;4985348;28;20105;-75
2023/03/14 10:42:16;;;;;;;0.00;0.00;;;14.00;99.90;;;;;;4990200;28;20149;-75
2023/03/14 10:44:49;;;;;;;0.68;0.47;;;13.80;99.90;;;;;;4976698;28;20405;-75
2023/03/14 10:47:26;;;;;;;0.00;0.00;;;13.70;99.90;;;;;;4975590;28;20018;-75
2023/03/14 10:49:54;;;;;;;0.00;0.00;;;13.60;99.90;;;;;;4987895;28;20018;-75
2023/03/14 10:52:29;;;;;;;0.00;0.00;;;13.60;99.90;;;;;;4974975;28;20112;-76
2023/03/14 10:55:01;;;;;;;0.00;0.00;;;13.50;99.90;;;;;;4970846;28;20049;-75
2023/03/14 10:57:29;;;;;;;0.00;0.00;;;13.40;99.90;;;;;;4977092;28;20376;-76
2023/03/14 10:59:59;;;;;;;0.00;0.00;;;13.40;99.90;;;;;;4990237;28;20034;-76
2023/03/14 11:02:40;;;;;;;0.00;0.00;;;13.40;99.90;;;;;;4988196;28;20034;-76
2023/03/14 11:05:19;;;;;;;0.00;0.00;;;13.30;99.90;;;;;;4988627;28;20018;-76
2023/03/14 11:07:46;;;;;;;0.00;0.00;;;13.30;99.90;;;;;;4972571;28;20072;-75
2023/03/14 11:10:51;;;;;;;0.00;0.00;;;13.20;99.90;;;;;;4988033;28;20516;-75
2023/03/14 11:13:37;;;;;;;0.00;0.00;;;13.10;99.90;;;;;;4989410;28;20054;-75
2023/03/14 11:16:08;;;;;;;0.00;0.00;;;13.00;99.90;;;;;;4982314;28;20129;-75
2023/03/14 11:19:00;;;;;;;0.00;0.00;;;13.00;99.90;;;;;;4973438;28;20022;-75
2023/03/14 11:21:49;;;;;;;0.00;0.00;;;13.00;99.90;;;;;;4973145;28;20388;-75
2023/03/14 11:24:36;;;;;;;0.00;0.00;;;13.00;99.90;;;;;;4987404;28;20014;-75
2023/03/14 11:27:20;;;;;;;0.00;0.00;;;12.90;99.90;;;;;;4986425;28;20109;-75
2023/03/14 11:30:23;;;;;;;0.00;0.00;;;12.80;99.90;;;;;;4990135;28;21062;-75
2023/03/14 11:32:48;;;;;;;0.00;0.00;;;12.70;99.90;;;;;;4981682;28;20038;-75
2023/03/14 11:35:24;;;;;;;0.00;0.00;;;12.70;99.90;;;;;;4977162;28;20375;-75
2023/03/14 11:38:05;;;;;;;0.00;0.00;;;12.70;99.90;;;;;;4981777;28;20034;-75
2023/03/14 11:40:34;;;;;;;0.00;0.00;;;12.70;99.90;;;;;;4976373;28;20038;-75
2023/03/14 11:43:16;;;;;;;0.00;0.00;;;12.70;99.90;;;;;;4990060;28;20573;-75
2023/03/14 11:45:43;;;;;;;0.00;0.00;;;12.60;99.90;;;;;;4984420;28;20022;-73
2023/03/14 11:48:27;;;;;;;;;;;12.70;99.90;;;;;;4976407;28;20057;-73
2023/03/14 11:50:57;;;;;;;0.00;0.00;;;12.60;99.90;;;;;;4980645;28;19913;-73
2023/03/14 11:53:49;;;;;;;0.00;0.00;;;12.50;99.90;;;;;;4976568;28;20052;-73
2023/03/14 11:56:39;;;;;;;0.00;0.00;;;12.50;99.90;;;;;;4974173;28;20037;-73
2023/03/14 11:59:15;;;;;;;0.00;0.00;;;12.30;99.90;;;;;;4988039;28;20030;-73
2023/03/14 12:02:09;;;;;;;0.00;0.00;;;12.30;99.90;;;;;;4986888;28;20033;-73
2023/03/14 12:04:41;;;;;;;0.00;0.00;;;12.20;99.90;;;;;;4991559;28;20040;-74
2023/03/14 12:07:24;;;;;;;0.00;0.00;;;12.20;99.90;;;;;;4991119;28;20029;-74
2023/03/14 12:09:52;;;;;;;0.00;0.00;;;12.20;99.90;;;;;;4974822;28;20495;-73
2023/03/14 12:12:22;;;;;;;0.00;0.00;;;12.20;99.90;;;;;;4990950;28;20026;-73
2023/03/14 12:15:20;;;;;;;0.00;0.00;;;12.10;99.90;;;;;;4990106;28;20021;-73
2023/03/14 12:17:56;;;;;;;0.00;0.00;;;12.10;99.90;;;;;;4979752;28;20029;-74
2023/03/14 12:20:24;;;;;;;0.00;0.00;;;12.10;99.90;;;;;;4983707;28;20109;-73
2023/03/14 12:23:01;;;;;;;0.00;0.00;;;12.00;99.90;;;;;;4977466;28;20451;-73
2023/03/14 12:25:33;;;;;;;0.00;0.00;;;12.00;99.90;;;;;;4978414;28;20066;-73
2023/03/14 12:28:30;;;;;;;0.00;0.00;;;12.00;99.90;;;;;;4984354;28;20022;-73
2023/03/14 12:31:32;;;;;;;0.00;0.00;;;11.90;99.90;;;;;;4983638;28;20046;-74
2023/03/14 12:34:19;;;;;;;0.00;0.00;;;11.90;99.90;;;;;;4989775;28;20057;-80
2023/03/14 12:36:51;;;;;;;0.00;0.00;;;11.90;99.90;;;;;;4992388;28;20029;-80
2023/03/14 12:39:25;;;;;;;0.00;0.00;;;12.00;99.90;;;;;;4978609;28;20026;-79
2023/03/14 12:42:29;;;;;;;0.00;0.00;;;12.00;99.90;;;;;;4990666;28;20530;-73
2023/03/14 12:45:25;;;;;;;0.00;0.00;;;12.00;99.90;;;;;;4959219;28;20096;-73
2023/03/14 12:48:12;;;;;;;0.00;0.00;;;11.90;99.90;;;;;;4996387;28;20383;-73
2023/03/14 12:51:01;;;;;;;0.00;0.00;;;11.90;99.90;;;;;;4973655;28;20658;-73
2023/03/14 12:53:33;;;;;;;0.00;0.00;;;11.90;99.90;;;;;;4984233;28;20958;-73
2023/03/14 12:56:25;;;;;;;0.00;0.00;;;11.90;99.90;;;;;;4991638;28;20121;-74
2023/03/14 12:59:29;;;;;;;0.00;0.00;;;11.80;99.90;;;;;;4989257;28;20111;-74
2023/03/14 13:01:59;;;;;;;0.00;0.00;;;11.80;99.90;;;;;;4985735;28;20497;-74
2023/03/14 13:04:35;;;;;;;0.00;0.00;;;11.70;99.90;;;;;;4987232;28;20025;-73
2023/03/14 13:07:03;;;;;;;0.00;0.00;;;11.70;99.90;;;;;;4996498;28;20369;-73
2023/03/14 13:09:29;;;;;;;0.00;0.00;;;11.70;99.90;;;;;;4980533;28;20032;-73
2023/03/14 13:12:00;;;;;;;0.00;0.00;;;11.60;99.90;;;;;;4981070;28;20022;-74
2023/03/14 13:14:28;;;;;;;0.00;0.00;;;11.60;99.90;;;;;;4982725;28;20404;-74
2023/03/14 13:16:54;;;;;;;0.00;0.00;;;11.60;99.90;;;;;;4996067;28;20025;-73